Thursday, May 24, 2018, 12:26 AM EDT
Back to Local

KABE, Lehigh Valley International Airport

Location: Allentown, PA, United States Lat: 40.65
Local Time: 12:26 AM EDT ( 4:26 GMT) Lon: -75.45
Time Zone: US/Eastern Elev: 393 ft

Show me the last for .
Show Decoded

2018-05-23 23:51 METAR KABE 240351Z 30003KT 10SM CLR 17/12 A3006 RMK AO2 SLP178 T01720117 =
2018-05-23 22:51 METAR KABE 240251Z 25004KT 10SM CLR 18/11 A3004 RMK AO2 SLP172 T01780111 51011 =
2018-05-23 21:51 METAR KABE 240151Z 22003KT 10SM CLR 18/11 A3004 RMK AO2 SLP169 T01780111 =
2018-05-23 20:51 METAR KABE 240051Z 24003KT 10SM CLR 22/10 A3003 RMK AO2 SLP166 T02170100 =
2018-05-23 19:51 METAR KABE 232351Z 32005KT 10SM CLR 23/11 A3001 RMK AO2 SLP161 T02330111 10267
                 20233 53008 =
2018-05-23 18:51 METAR KABE 232251Z 33007KT 10SM CLR 26/11 A3000 RMK AO2 SLP157 T02560111 =
2018-05-23 17:51 METAR KABE 232151Z 33008KT 10SM CLR 26/12 A2999 RMK AO2 SLP154 T02610117 =
2018-05-23 16:51 METAR KABE 232051Z AUTO 34010KT 10SM CLR 26/12 A2999 RMK AO2 SLP153 T02610117
                 55003 =
2018-05-23 15:51 METAR KABE 231951Z 32011KT 10SM CLR 26/12 A2998 RMK AO2 SLP151 T02610122 =
2018-05-23 14:51 METAR KABE 231851Z 35007KT 10SM CLR 26/13 A3000 RMK AO2 SLP155 T02610133 =
2018-05-23 14:15 METAR KABE 231815Z 01007KT 340V040 10SM FEW048 25/13 A3000 RMK AO2 T02500133 =
2018-05-23 14:06 METAR KABE 231806Z 32009KT 2SM HZ FEW048 25/13 A3000 RMK AO2 T02500133 =
2018-05-23 13:51 METAR KABE 231751Z 32007KT 10SM FEW044 24/13 A3000 RMK AO2 SLP156 T02440133
                 10244 20172 50005 =
2018-05-23 12:51 METAR KABE 231651Z 34008G15KT 10SM FEW032 23/14 A3000 RMK AO2 SLP158 T02280144 =
2018-05-23 12:32 METAR KABE 231632Z 34009G18KT 10SM SCT030 SCT035 22/14 A3000 RMK AO2 T02220144 =
2018-05-23 12:22 METAR KABE 231622Z 33011G19KT 10SM BKN029 22/14 A3001 RMK AO2 T02220144 =
2018-05-23 11:51 METAR KABE 231551Z 33011G20KT 10SM SCT028 BKN034 22/14 A3000 RMK AO2 SLP158
                 T02220144 =
2018-05-23 11:31 METAR KABE 231531Z 34012KT 10SM BKN027 OVC032 21/14 A3000 RMK AO2 T02110144 =
2018-05-23 10:51 METAR KABE 231451Z 34012KT 10SM OVC065 22/15 A2998 RMK AO2 SLP151 T02170150
                 53015 =
2018-05-23 10:18 METAR KABE 231418Z 30012G17KT 10SM SCT023 BKN030 OVC035 22/16 A2997 RMK AO2
                 T02170161 =
2018-05-23 10:00 METAR KABE 231400Z 30009KT 10SM SCT019 BKN028 BKN070 22/17 A2997 RMK AO2
                 T02170167 =
2018-05-23 09:51 METAR KABE 231351Z 32009KT 10SM FEW019 SCT026 BKN070 22/17 A2996 RMK AO2 SLP145
                 T02170167 =
2018-05-23 09:26 METAR KABE 231326Z 30006KT 10SM SCT013 SCT019 21/17 A2996 RMK AO2 T02110167 =
2018-05-23 09:06 METAR KABE 231306Z 25003KT 9SM SCT008 BKN012 20/17 A2995 RMK AO2 T02000172 =
2018-05-23 08:51 METAR KABE 231251Z 26005KT 9SM BKN008 BKN030 BKN037 19/17 A2996 RMK AO2 SLP142
                 T01940167 =
2018-05-23 08:12 METAR KABE 231212Z 26006KT 5SM BR FEW004 SCT029 18/16 A2995 RMK AO2 T01780161 =
2018-05-23 08:02 METAR KABE 231202Z 24008KT 5SM BR BKN029 18/16 A2995 RMK AO2 T01780161 =
2018-05-23 07:51 METAR KABE 231151Z 23006KT 5SM BR FEW004 OVC030 17/16 A2994 RMK AO2 SLP137 60068
                 70114 T01720156 10172 20156 50001 =
2018-05-23 07:48 METAR KABE 231148Z 25004KT 5SM BR SCT004 OVC030 17/16 A2994 RMK AO2 =
2018-05-23 07:27 METAR KABE 231127Z 30004KT 3SM BR OVC002 17/15 A2995 RMK AO2 T01670150 =
2018-05-23 06:58 METAR KABE 231058Z AUTO 35003KT 1 1/4SM BR OVC002 16/15 A2994 RMK AO2 T01610150
                 =
2018-05-23 06:51 METAR KABE 231051Z 35003KT 3/4SM BR VV002 16/15 A2994 RMK AO2 SLP137 T01610150 =
2018-05-23 06:49 METAR KABE 231049Z 35003KT 3/4SM BR VV002 16/15 A2994 RMK AO2 =
2018-05-23 06:05 METAR KABE 231005Z 00000KT 1/4SM FG VV002 16/14 A2992 RMK AO2 T01610144 =
2018-05-23 05:51 METAR KABE 230951Z 00000KT 1/2SM FG VV002 16/14 A2992 RMK AO2 SLP130 T01560144 =
2018-05-23 05:23 METAR KABE 230923Z 00000KT 1/2SM FG VV002 16/15 A2991 RMK AO2 T01560150 =
2018-05-23 05:14 METAR KABE 230914Z 32004KT 1/4SM FG VV002 16/14 A2991 RMK AO2 T01610144 =
2018-05-23 04:51 METAR KABE 230851Z 33005KT 1/2SM FG VV002 16/14 A2991 RMK AO2 RAE30 SLP126 P0002
                 60068 T01560144 56010 =
2018-05-23 04:39 METAR KABE 230839Z 34006KT 1/2SM FG BKN002 OVC007 16/14 A2990 RMK AO2 LTG DSNT E
                 RAE30 P0002 T01560139 =
2018-05-23 04:31 METAR KABE 230831Z 00000KT 3SM BR BKN002 BKN110 16/14 A2990 RMK AO2 LTG DSNT E
                 AND SE RAE30 P0002 T01610144 =
2018-05-23 04:16 METAR KABE 230816Z 20003KT 3SM -RA BR FEW002 SCT075 BKN100 16/14 A2989 RMK AO2
                 LTG DSNT E P0001 T01610144 =
2018-05-23 04:01 METAR KABE 230801Z 00000KT 3SM VCTS RA BR FEW002 BKN075 OVC100 16/15 A2990 RMK
                 AO2 P0001 T01610150 =
2018-05-23 03:54 METAR KABE 230754Z 19003KT 2 1/2SM VCTS -RA BR SCT002 BKN048 OVC095 16/15 A2991
                 RMK AO2 LTG DSNT E P0000 T01610150 =
2018-05-23 03:51 METAR KABE 230751Z 19003KT 1 1/2SM VCTS -RA BR SCT002 BKN021 OVC075 16/15 A2991
                 RMK AO2 LTG DSNT E TSB0652E12 SLP127 P0015 T01610150 =
2018-05-23 03:44 METAR KABE 230744Z 00000KT 1 1/2SM VCTS RA BR BKN002 BKN025 OVC048 16/15 A2991
                 RMK AO2 LTG DSNT E TSB0652E12 P0008 T01610150 =
2018-05-23 03:36 METAR KABE 230736Z 00000KT 4SM VCTS -RA BR BKN002 BKN048 OVC070 16/14 A2992 RMK
                 AO2 LTG DSNT E AND W TSB0652E12 P0007 T01610144 =
2018-05-23 03:28 METAR KABE 230728Z 27004KT 4SM -RA BR BKN002 BKN055 OVC090 16/15 A2991 RMK AO2
                 LTG DSNT E AND SE AND W TSB0652E12 P0007 T01610150 =
2018-05-23 03:14 METAR KABE 230714Z 00000KT 3SM -RA BR FEW003 BKN033 OVC090 16/15 A2990 RMK AO2
                 LTG DSNT E AND W TSB0652E12 PRESFR P0007 T01610150 =
2018-05-23 02:58 METAR KABE 230658Z 26007KT 2SM TSRA BR FEW003 SCT025 OVC035 16/14 A2993 =
2018-05-23 02:51 METAR KABE 230651Z 23004KT 2 1/2SM VCTS RA BR SCT003 SCT027 OVC037 16/14 A2992
                 RMK AO2 LTG DSNT E AND SE AND W TSE0558B01E16B25E40 SLP131 P0051 T01610144 =
2018-05-23 02:45 METAR KABE 230645Z 24004KT 2 1/2SM VCTS RA BR SCT003 BKN029 OVC041 16/14 A2993
                 RMK AO2 LTG DSNT E AND SE AND W TSE0558B01E16B25E40 P0050 =
2018-05-23 02:40 METAR KABE 230640Z 00000KT 1 3/4SM VCTS -RA BR FEW003 SCT029 OVC041 16/14 A2992
                 RMK AO2 LTG DSNT E AND W TSE0558B01E16B25E40 P0049 T01610144 =
2018-05-23 02:38 METAR KABE 230638Z 28003KT 1 1/2SM TSRA BR SCT029 BKN041 OVC055 16/14 A2992 RMK
                 AO2 LTG DSNT E AND W TSE0558B01E16B25 P0048 T01610144 =
2018-05-23 02:27 METAR KABE 230627Z 00000KT 2SM -TSRA BR SCT030 BKN043 OVC050 16/15 A2992 RMK AO2
                 LTG DSNT ALQDS TSE0558B01E16B25 P0040 T01610150 =
2018-05-23 02:22 METAR KABE 230622Z 00000KT 1 1/2SM VCTS +RA BR BKN032 OVC048 16/14 A2992 RMK AO2
                 LTG DSNT ALQDS TSE0558B01E16 P0036 T01610144 =
2018-05-23 02:04 METAR KABE 230604Z 15008KT 1 1/4SM +TSRA BR FEW003 BKN030 OVC055 16/14 A2993 RMK
                 AO2 LTG DSNT E TSE0558B01 P0019 T01610144 =
2018-05-23 02:00 METAR KABE 230600Z 17005KT 1 1/2SM VCTS +RA BR SCT004 BKN028 OVC055 16/14 A2994
                 RMK AO2 LTG DSNT E TSE0558 P0009 T01610144 =
2018-05-23 01:51 METAR KABE 230551Z 18005KT 1 3/4SM +TSRA BR FEW004 BKN044 OVC055 16/14 A2994 RMK
                 AO2 LTG DSNT NE AND E TSB17 SLP137 P0014 60014 T01560144 10161 20156 58005 =
2018-05-23 01:47 METAR KABE 230547Z 10004KT 1 1/2SM +TSRA BR FEW003 BKN022 OVC055 16/14 A2994 RMK
                 AO2 LTG DSNT NE AND E TSB17 PRESFR P0012 =
2018-05-23 01:38 METAR KABE 230538Z 23005KT 2 1/2SM +TSRA BR FEW003 BKN021 OVC045 16/14 A2996 RMK
                 AO2 LTG DSNT NW-E TSB17 P0002 T01560144 =
2018-05-23 01:23 METAR KABE 230523Z VRB03KT 5SM -TSRA BR FEW002 BKN013 OVC021 16/14 A2996 RMK AO2
                 LTG DSNT N AND NE TSB17 P0001 T01610139 =
2018-05-23 01:16 METAR KABE 230516Z 16005KT 4SM VCTS -RA BR SCT002 OVC013 16/14 A2995 RMK AO2 LTG
                 DSNT W-NE P0001 T01560139 =
2018-05-23 01:08 METAR KABE 230508Z 00000KT 3SM VCTS -RA BR BKN002 OVC013 16/14 A2996 RMK AO2 LTG
                 DSNT W-NE P0001 T01560144 =
2018-05-23 01:03 METAR KABE 230503Z 36003KT 1 3/4SM VCTS -RA BR BKN002 BKN007 OVC013 16/14 A2997
                 RMK AO2 LTG DSNT W-NE P0001 T01560139 =
2018-05-23 00:53 METAR KABE 230453Z 36008KT 1SM -RA BR OVC002 16/14 A2996 RMK AO2 LTG DSNT NW-NE
                 P0000 T01560139 =
2018-05-23 00:51 METAR KABE 230451Z 35008KT 3/4SM VCTS -RA BR OVC002 16/14 A2997 RMK AO2 LTG DSNT
                 NW-NE RAB49 SLP147 P0000 T01560139 401940144 =
2018-05-23 00:43 METAR KABE 230443Z 34007KT 1SM VCTS BR OVC002 16/14 A2997 RMK AO2 LTG DSNT NW-NE
                 T01560139 =
2018-05-23 00:30 METAR KABE 230430Z 00000KT 1 1/2SM BR OVC002 16/14 A2996 RMK AO2 LTG DSNT N AND
                 NW T01560139 =

Support USWX by starting your Amazon purchase here.